createdAt,value
2017-08-17T00:02:21.804Z,1020.8
2017-08-17T00:07:27.214Z,1020.8
2017-08-17T00:12:32.623Z,1020.7
2017-08-17T00:17:37.700Z,1020.6
2017-08-17T00:22:43.784Z,1020.5
2017-08-17T00:27:49.522Z,1020.6
2017-08-17T00:32:55.263Z,1020.6
2017-08-17T00:38:00.675Z,1020.5
2017-08-17T00:43:06.416Z,1020.4
2017-08-17T00:48:11.822Z,1020.5
2017-08-17T00:53:17.230Z,1020.4
2017-08-17T00:58:22.634Z,1020.5
2017-08-17T01:03:28.709Z,1020.5
2017-08-17T01:08:34.113Z,1020.5
2017-08-17T01:13:39.185Z,1020.5
2017-08-17T01:18:44.263Z,1020.5
2017-08-17T01:23:50.004Z,1020.4
2017-08-17T01:28:55.409Z,1020.4
2017-08-17T01:34:00.816Z,1020.4
2017-08-17T01:39:06.225Z,1020.2
2017-08-17T01:44:12.304Z,1020.2
2017-08-17T01:49:17.711Z,1020.2
2017-08-17T01:54:23.119Z,1020.1
2017-08-17T01:59:28.863Z,1020
2017-08-17T02:04:34.937Z,1020
2017-08-17T02:09:41.011Z,1019.9
2017-08-17T02:14:46.422Z,1019.9
2017-08-17T02:19:52.168Z,1019.8
2017-08-17T02:24:57.240Z,1019.8
2017-08-17T02:30:02.648Z,1019.7
2017-08-17T02:35:08.390Z,1019.5
2017-08-17T02:40:13.475Z,1019.4
2017-08-17T02:45:18.869Z,1019.4
2017-08-17T02:50:23.939Z,1019.5
2017-08-17T02:55:29.679Z,1019.6
2017-08-17T03:00:35.418Z,1019.5
2017-08-17T03:05:41.158Z,1019.5
2017-08-17T03:10:46.950Z,1019.4
2017-08-17T03:15:53.027Z,1019.4
2017-08-17T03:20:59.096Z,1019.4
2017-08-17T03:26:05.167Z,1019.4
2017-08-17T03:31:10.569Z,1019.3
2017-08-17T03:36:16.310Z,1019.3
2017-08-17T03:41:22.060Z,1019.3
2017-08-17T03:46:27.796Z,1019.2
2017-08-17T03:51:33.535Z,1019.1
2017-08-17T03:56:39.275Z,1019.1
2017-08-17T04:01:45.015Z,1019.1
2017-08-17T04:06:50.753Z,1018.9
2017-08-17T04:11:56.159Z,1018.9
2017-08-17T04:17:01.231Z,1018.9
2017-08-17T04:22:06.638Z,1018.9
2017-08-17T04:27:12.043Z,1018.9
2017-08-17T04:32:17.785Z,1018.8
2017-08-17T04:37:23.528Z,1018.7
2017-08-17T04:42:28.934Z,1018.7
2017-08-17T04:47:34.341Z,1018.7
2017-08-17T04:52:40.083Z,1018.6
2017-08-17T04:57:46.159Z,1018.5
2017-08-17T05:02:52.236Z,1018.4
2017-08-17T05:07:57.640Z,1018.4
2017-08-17T05:13:03.050Z,1018.4
2017-08-17T05:18:08.122Z,1018.4
2017-08-17T05:23:13.530Z,1018.3
2017-08-17T05:28:19.285Z,1018.2
2017-08-17T05:33:25.029Z,1018.3
2017-08-17T05:38:30.432Z,1018.2
2017-08-17T05:43:35.502Z,1018.2
2017-08-17T05:48:40.911Z,1018.1
2017-08-17T05:53:46.647Z,1018.2
2017-08-17T05:58:52.050Z,1018
2017-08-17T06:03:57.795Z,1018
2017-08-17T06:09:03.202Z,1018
2017-08-17T06:14:08.610Z,1018.1
2017-08-17T06:19:13.692Z,1018.1
2017-08-17T06:24:19.423Z,1018
2017-08-17T06:29:25.165Z,1018
2017-08-17T06:34:31.241Z,1017.9
2017-08-17T06:39:36.313Z,1017.8
2017-08-17T06:44:42.059Z,1017.7
2017-08-17T06:49:47.799Z,1017.6
2017-08-17T06:54:53.207Z,1017.5
2017-08-17T06:59:58.282Z,1017.4
2017-08-17T07:05:03.690Z,1017.4
2017-08-17T07:10:09.771Z,1017.4
2017-08-17T07:15:15.174Z,1017.2
2017-08-17T07:20:20.251Z,1017.2
2017-08-17T07:25:25.680Z,1017.2
2017-08-17T07:30:31.070Z,1017.2
2017-08-17T07:35:36.817Z,1017.2
2017-08-17T07:40:42.894Z,1017.1
2017-08-17T07:45:47.639Z,1017.1
2017-08-17T07:50:53.381Z,1017.1
2017-08-17T07:55:59.131Z,1017.1
2017-08-17T08:01:04.539Z,1017
2017-08-17T08:06:08.953Z,1017
2017-08-17T08:11:14.364Z,1017
2017-08-17T08:16:19.784Z,1016.9
2017-08-17T08:21:24.868Z,1016.9
2017-08-17T08:26:30.289Z,1016.8
2017-08-17T08:31:35.714Z,1016.8
2017-08-17T08:36:41.466Z,1016.8
2017-08-17T08:41:47.219Z,1016.8
2017-08-17T08:46:52.972Z,1016.7
2017-08-17T08:51:58.397Z,1016.5
2017-08-17T08:57:03.480Z,1016.5
2017-08-17T09:02:09.232Z,1016.5
2017-08-17T09:07:14.318Z,1016.4
2017-08-17T09:12:20.072Z,1016.3
2017-08-17T09:17:25.825Z,1016.3
2017-08-17T09:22:31.632Z,1016.3
2017-08-17T09:27:37.587Z,1016.2
2017-08-17T09:32:43.342Z,1016.1
2017-08-17T09:37:49.097Z,1016.1
2017-08-17T09:42:54.849Z,1016
2017-08-17T09:48:00.608Z,1015.8
2017-08-17T09:53:06.788Z,1015.8
2017-08-17T09:58:11.862Z,1015.7
2017-08-17T10:03:17.947Z,1015.6
2017-08-17T10:08:23.365Z,1015.6
2017-08-17T10:13:29.488Z,1015.6
2017-08-17T10:18:35.239Z,1015.5
2017-08-17T10:23:40.655Z,1015.4
2017-08-17T10:28:46.074Z,1015.4
2017-08-17T10:33:51.162Z,1015.4
2017-08-17T10:38:56.580Z,1015.4
2017-08-17T10:44:01.990Z,1015.4
2017-08-17T10:49:07.742Z,1015.5
2017-08-17T10:54:13.156Z,1015.4
2017-08-17T10:59:18.930Z,1015.4
2017-08-17T11:04:24.043Z,1015.4
2017-08-17T11:09:29.476Z,1015.2
2017-08-17T11:14:34.578Z,1015.2
2017-08-17T11:19:40.347Z,1015.2
2017-08-17T11:24:46.473Z,1015.1
2017-08-17T11:29:51.570Z,1015.1
2017-08-17T11:34:57.707Z,1015
2017-08-17T11:40:03.531Z,1015.1
2017-08-17T11:45:09.328Z,1015
2017-08-17T11:50:14.445Z,1015.1
2017-08-17T11:55:20.234Z,1015.1
2017-08-17T12:00:26.061Z,1015
2017-08-17T12:05:31.831Z,1014.9
2017-08-17T12:10:37.908Z,1014.9
2017-08-17T12:15:43.329Z,1014.9
2017-08-17T12:20:48.405Z,1014.9
2017-08-17T12:25:54.156Z,1014.9
2017-08-17T12:30:59.908Z,1014.8
2017-08-17T12:36:04.711Z,1014.9
2017-08-17T12:41:10.455Z,1014.8
2017-08-17T12:46:15.536Z,1014.8
2017-08-17T12:51:21.290Z,1014.7
2017-08-17T12:56:27.041Z,1014.7
2017-08-17T13:01:32.120Z,1014.7
2017-08-17T13:06:36.863Z,1014.7
2017-08-17T13:11:42.277Z,1014.7
2017-08-17T13:16:47.352Z,1014.8
2017-08-17T13:21:53.436Z,1014.8
2017-08-17T13:26:58.563Z,1014.8
2017-08-17T13:32:03.977Z,1014.8
2017-08-17T13:37:09.722Z,1014.9
2017-08-17T13:42:14.797Z,1014.9
2017-08-17T13:47:20.214Z,1014.8
2017-08-17T13:52:25.965Z,1014.7
2017-08-17T13:57:31.044Z,1014.7
2017-08-17T14:02:36.120Z,1014.6
2017-08-17T14:07:41.531Z,1014.5
2017-08-17T14:12:47.283Z,1014.5
2017-08-17T14:17:53.361Z,1014.5
2017-08-17T14:22:59.446Z,1014.4
2017-08-17T14:28:05.194Z,1014.4
2017-08-17T14:33:10.271Z,1014.4
2017-08-17T14:38:16.021Z,1014.4
2017-08-17T14:43:21.100Z,1014.3
2017-08-17T14:48:26.851Z,1014.3
2017-08-17T14:53:32.599Z,1014.2
2017-08-17T14:58:38.347Z,1014.2
2017-08-17T15:03:44.094Z,1014.2
2017-08-17T15:08:49.841Z,1014.1
2017-08-17T15:13:55.253Z,1014.1
2017-08-17T15:19:01.002Z,1014.2
2017-08-17T15:24:06.409Z,1014.5
2017-08-17T15:29:12.153Z,1014.6
2017-08-17T15:34:18.231Z,1014.6
2017-08-17T15:39:23.977Z,1014.6
2017-08-17T15:44:30.061Z,1014.6
2017-08-17T15:49:36.143Z,1014.5
2017-08-17T15:54:41.553Z,1014.5
2017-08-17T15:59:47.302Z,1014.5
2017-08-17T16:04:52.080Z,1014.5
2017-08-17T16:09:57.139Z,1014.4
2017-08-17T16:15:02.880Z,1014.5
2017-08-17T16:20:07.624Z,1014.3
2017-08-17T16:25:12.704Z,1014.3
2017-08-17T16:30:17.446Z,1014.3
2017-08-17T16:35:22.862Z,1014.3
2017-08-17T16:40:28.607Z,1014.2
2017-08-17T16:45:34.688Z,1014.2
2017-08-17T16:50:40.433Z,1014.3
2017-08-17T16:55:46.190Z,1014.4
2017-08-17T17:00:50.636Z,1014.3
2017-08-17T17:05:56.080Z,1014.4
2017-08-17T17:11:01.170Z,1014.4
2017-08-17T17:16:06.600Z,1014.3
2017-08-17T17:21:12.041Z,1014.4
2017-08-17T17:26:17.813Z,1014.3
2017-08-17T17:31:23.924Z,1014.3
2017-08-17T17:36:29.367Z,1014.5
2017-08-17T17:41:34.803Z,1014.5
2017-08-17T17:46:40.281Z,1014.4
2017-08-17T17:51:45.755Z,1014.4
2017-08-17T17:56:51.862Z,1014.4
2017-08-17T18:01:56.978Z,1014.4
2017-08-17T18:07:02.432Z,1014.4
2017-08-17T18:12:08.222Z,1014.5
2017-08-17T18:17:14.017Z,1014.5
2017-08-17T18:22:19.131Z,1014.3
2017-08-17T18:27:24.581Z,1014.4
2017-08-17T18:32:30.041Z,1014.4
2017-08-17T18:37:35.826Z,1014.4
2017-08-17T18:42:41.656Z,1014.3
2017-08-17T18:47:47.450Z,1014.3
2017-08-17T18:52:52.942Z,1014.3
2017-08-17T18:57:58.385Z,1014.2
2017-08-17T19:03:04.502Z,1014.2
2017-08-17T19:08:09.948Z,1014.3
2017-08-17T19:13:15.728Z,1014.3
2017-08-17T19:18:21.160Z,1014.3
2017-08-17T19:23:26.614Z,1014.3
2017-08-17T19:28:32.394Z,1014.5
2017-08-17T19:33:37.916Z,1014.4
2017-08-17T19:38:44.041Z,1014.4
2017-08-17T19:43:49.151Z,1014.4
2017-08-17T19:48:54.249Z,1014.5
2017-08-17T19:54:00.029Z,1014.4
2017-08-17T19:59:05.470Z,1014.4
2017-08-17T20:04:11.255Z,1014.4
2017-08-17T20:09:16.363Z,1014.4
2017-08-17T20:14:22.472Z,1014.4
2017-08-17T20:19:28.568Z,1014.4
2017-08-17T20:24:34.292Z,1014.4
2017-08-17T20:29:40.082Z,1014.4
2017-08-17T20:34:45.873Z,1014.4
2017-08-17T20:39:51.642Z,1014.4
2017-08-17T20:44:57.082Z,1014.3
2017-08-17T20:50:02.186Z,1014.3
2017-08-17T20:55:07.964Z,1014.3
2017-08-17T21:00:13.738Z,1014.3
2017-08-17T21:05:19.169Z,1014.3
2017-08-17T21:10:24.612Z,1014.3
2017-08-17T21:15:29.692Z,1014.3
2017-08-17T21:20:34.766Z,1014.3
2017-08-17T21:25:40.188Z,1014.3
2017-08-17T21:30:45.609Z,1014.3
2017-08-17T21:35:50.687Z,1014.3
2017-08-17T21:40:56.768Z,1014.4
2017-08-17T21:46:02.850Z,1014.4
2017-08-17T21:51:08.263Z,1014.3
2017-08-17T21:56:14.014Z,1014.3
2017-08-17T22:01:19.977Z,1014.4
2017-08-17T22:06:25.045Z,1014.4
2017-08-17T22:11:31.128Z,1014.4
2017-08-17T22:16:36.204Z,1014.4
2017-08-17T22:21:42.292Z,1014.3
2017-08-17T22:26:47.699Z,1014.3
2017-08-17T22:31:52.442Z,1014.3
2017-08-17T22:36:58.188Z,1014.3
2017-08-17T22:42:03.932Z,1014.3
2017-08-17T22:47:09.348Z,1014.4
2017-08-17T22:52:14.755Z,1014.3
2017-08-17T22:57:20.501Z,1014.2
2017-08-17T23:02:25.914Z,1014.3
2017-08-17T23:07:31.324Z,1014.3
2017-08-17T23:12:36.733Z,1014.3
2017-08-17T23:17:42.481Z,1014.2
2017-08-17T23:22:48.229Z,1014.2
2017-08-17T23:27:53.638Z,1014.2
2017-08-17T23:32:59.052Z,1014.2
2017-08-17T23:38:04.128Z,1014.1
2017-08-17T23:43:09.536Z,1014
2017-08-17T23:48:15.281Z,1014
2017-08-17T23:53:20.361Z,1014
2017-08-17T23:58:25.434Z,1014
